الصفحة الرئيسية
METAR-TAF:

METAR-TAF

مطار :

مطار جوليوس نيريري

دار السلام, تنزانيا

دائرة عرض: 06-52S, خط طول: 039-12E, ارتفاع: 55 متر

مراقبة الطقس الحالي

تاريخ ووقت الإصدار 1ساعة و 8 دقيقة قبل الساعة 07:00UTC
ريح 8 عقدة من الشمال/الشمال الشرقي
درجة الحرارة 31°درجة مئوية
الرطوبة 66%
ضغط 1012 hPa
الرؤية 10 كم أو أكثر
غيوم قليلة على ارتفاع 1800 قدم
غيوم مفككة على ارتفاع 2000 قدم

METAR: HTDA 150700Z 02008KT 9999 FEW018 BKN020 31/24 Q1012 NOSIG

زمن: 11:08 (08:08 UTC)

توقعات

تاريخ ووقت الإصدار 3ساعات و 8 دقيقة قبل الساعة 05:00UTC
التوقعات صالحة من15 الساعة 06 UTC إلى 16 الساعة 12 UTC
ريح 10 عقدة من الشرق/الشمال الشرقي
الرؤية 10 كم أو أكثر
غيوم مفككة على ارتفاع 2400 قدم
أصبح
من 15 الساعة 11 UTC إلى 15 الساعة 14 UTC
غيوم متفرقة على ارتفاع 2700 قدم

TAF: HTDA 150500Z 1506/1612 06010KT 9999 BKN024 BECMG 1511/1514 SCT027

أرصاد الطقس والتوقعات من أكثر من 4000 مطار (تقارير الطقس للمطار METAR والتنبؤ بالطقس بالمطارTAF).

المحطات المتاحة هي النقط الصفراء والحمراء على الخريطة.

حرك المؤشر فوق النقطة لمعرفة اسم المحطة.

ثم انقر لمعرفة أرصاد وتوقعات الطقس.

لتغيير الخارطة: اضغط على الأزرار الخضراء مع رمز الصليب الأسود للتكبير. على الزر الأخضر مع شرطة للتصغير، أو على الأسهم الخضراء للخرائط المجاورة.


METAR-TAF: